Venango Regional Airport
KFKL : now visible

Airfield :











YOU CAN JOIN US ON...

 
LOGIN :

Register | Disclaimer

   EN    FR    IT 

 









Legend :    VFR   Marginal VFR   IFR   Intensive IFR   Very Intensive IFR
Visi :
Ceiling :
>= 8 km
>= 3000ft
5 to 8 km
1000 to 3000 ft
1500m to 5 km
500 to 1000 ft
800 to 1500m
200 to 500 ft
< 800m
< 200 ft
Symbols :   Thunderstorms  Fog  Heavy snow  Heavy precipitations  Wind > 20 kt






- Airport Elevation : 1540 ft


KFKL - Venango Regional

CURRENT METAR :
  • 200235Z AUTO 27012G19KT 4SM -SN BR OVC015 M10/M12 A3016 RMK AO2 P0000 FZRANO

EXPIRED METARs :
  • 200212Z AUTO 27012KT 3SM -SN BR OVC012 M11/M12 A3015 RMK AO2 P0000 FZRANO
  • 200205Z AUTO 27013KT 2 1/2SM -SN BR FEW008 OVC012 M10/M12 A3015 RMK AO2 VIS 2V3 P0000 FZRANO
  • 200136Z AUTO 26011KT 3SM -SN BR BKN014 OVC020 M10/M12 A3014 RMK AO2 P0000 FZRANO
  • 200056Z AUTO 27011KT 4SM -SN BR BKN020 OVC033 M11/M12 A3013 RMK AO2 SLP233 P0000 T11061122 FZRANO
  • 200020Z AUTO 25012G18KT 4SM -SN BR FEW014 BKN026 OVC035 M10/M12 A3012 RMK AO2 P0000 FZRANO
  • 192356Z AUTO 25012G19KT 4SM -SN BR OVC037 M11/M12 A3011 RMK AO2 SLP226 P0000 60000 T11061122 11089 21106 51027 FZRANO

TAF KFKL
Valid from the 20 at 00:00 until the 21 at 00:00 UTC


200017Z 2000/2024 26010G18KT 3SM -SN OVC020
TEMPO 2000/2004 1SM -SN BKN008
FM200500 32008KT 6SM -SN OVC025
FM201400 34008KT P6SM BKN035



MET'MAP, your aeronautical weather chart ! - Copyright ORBIFLY December 2007 - Disclaimer

ORBIFLY MET'MAP TEAM :

Programming & Development : Alexandra Zaïnal
Concept & original design : Baudouin d'Aumeries
Assistance for programming : Marc-Olivier Méhu
Technical & hardware support : Manuel Goepfert

Contact : metmap@orbifly.com




SOURCES & CREDITS :

   NOAA       Earth
Advisory